createdAt,value
2022-09-13T00:01:21.533Z,2.88
2022-09-13T00:03:50.937Z,2.88
2022-09-13T00:06:19.224Z,3.20
2022-09-13T00:08:46.060Z,2.75
2022-09-13T00:11:22.905Z,3.05
2022-09-13T00:13:50.861Z,3.15
2022-09-13T00:16:18.222Z,2.85
2022-09-13T00:18:45.122Z,2.85
2022-09-13T00:21:13.333Z,2.78
2022-09-13T00:23:39.968Z,2.92
2022-09-13T00:26:10.880Z,3.50
2022-09-13T00:31:05.245Z,3.20
2022-09-13T00:33:31.979Z,4.20
2022-09-13T00:35:58.741Z,3.30
2022-09-13T00:38:25.230Z,3.40
2022-09-13T00:40:51.546Z,3.15
2022-09-13T00:43:40.062Z,3.05
2022-09-13T00:46:06.765Z,3.05
2022-09-13T00:48:34.533Z,3.40
2022-09-13T00:51:03.846Z,3.53
2022-09-13T00:53:32.956Z,3.53
2022-09-13T00:55:59.312Z,3.40
2022-09-13T00:58:27.846Z,3.22
2022-09-13T01:00:56.384Z,3.45
2022-09-13T01:03:24.072Z,2.92
2022-09-13T01:05:53.278Z,2.92
2022-09-13T01:08:23.240Z,3.67
2022-09-13T01:10:53.870Z,3.73
2022-09-13T01:13:21.662Z,3.78
2022-09-13T01:15:48.088Z,3.85
2022-09-13T01:18:16.234Z,3.58
2022-09-13T01:20:54.751Z,3.60
2022-09-13T01:23:33.256Z,3.38
2022-09-13T01:26:18.022Z,3.10
2022-09-13T01:28:58.697Z,3.30
2022-09-13T01:31:43.901Z,3.08
2022-09-13T01:34:13.706Z,3.47
2022-09-13T01:36:40.032Z,3.55
2022-09-13T01:39:08.027Z,2.85
2022-09-13T01:41:47.059Z,3.33
2022-09-13T01:44:36.669Z,3.17
2022-09-13T01:47:03.024Z,2.70
2022-09-13T01:49:47.727Z,2.67
2022-09-13T01:52:37.662Z,2.50
2022-09-13T01:55:10.123Z,2.63
2022-09-13T01:57:41.064Z,2.40
2022-09-13T02:02:53.799Z,2.13
2022-09-13T02:05:20.117Z,2.40
2022-09-13T02:07:58.420Z,2.72
2022-09-13T02:10:31.049Z,2.25
2022-09-13T02:12:59.176Z,2.28
2022-09-13T02:15:38.405Z,2.08
2022-09-13T02:18:08.589Z,1.92
2022-09-13T02:20:36.805Z,2.45
2022-09-13T02:23:05.276Z,2.40
2022-09-13T02:25:36.022Z,2.20
2022-09-13T02:28:05.096Z,1.98
2022-09-13T02:30:33.884Z,2.10
2022-09-13T02:33:09.903Z,0.90
2022-09-13T02:35:43.697Z,1.00
2022-09-13T02:38:13.115Z,0.80
2022-09-13T02:40:43.133Z,0.40
2022-09-13T02:43:19.195Z,0.60
2022-09-13T02:45:53.705Z,0.73
2022-09-13T02:48:26.114Z,0.40
2022-09-13T02:50:59.842Z,0.65
2022-09-13T02:53:30.370Z,0.90
2022-09-13T02:55:59.952Z,0.50
2022-09-13T02:58:34.408Z,0.70
2022-09-13T03:01:01.268Z,0.77
2022-09-13T03:03:27.724Z,0.98
2022-09-13T03:05:54.160Z,1.13
2022-09-13T03:08:21.722Z,1.17
2022-09-13T03:10:51.302Z,1.25
2022-09-13T03:13:27.734Z,1.60
2022-09-13T03:16:12.665Z,1.45
2022-09-13T03:18:52.830Z,1.60
2022-09-13T03:21:25.409Z,1.80
2022-09-13T03:24:04.612Z,1.55
2022-09-13T03:26:49.661Z,2.30
2022-09-13T03:29:29.236Z,2.10
2022-09-13T03:32:05.767Z,2.20
2022-09-13T03:34:32.204Z,2.33
2022-09-13T03:37:06.346Z,2.35
2022-09-13T03:39:46.172Z,2.45
2022-09-13T03:42:18.621Z,2.92
2022-09-13T03:44:47.644Z,3.55
2022-09-13T03:47:15.167Z,2.90
2022-09-13T03:49:41.651Z,3.22
2022-09-13T03:52:08.149Z,2.97
2022-09-13T03:54:37.078Z,3.42
2022-09-13T03:57:17.444Z,3.97
2022-09-13T03:59:47.715Z,4.03
2022-09-13T04:02:14.765Z,3.53
2022-09-13T04:04:41.873Z,3.05
2022-09-13T04:07:12.270Z,3.47
2022-09-13T04:09:39.305Z,4.45
2022-09-13T04:12:05.951Z,3.35
2022-09-13T04:14:32.376Z,3.65
2022-09-13T04:16:58.826Z,2.90
2022-09-13T04:19:25.632Z,2.45
2022-09-13T04:21:52.932Z,2.83
2022-09-13T04:24:24.760Z,2.17
2022-09-13T04:26:51.565Z,3.13
2022-09-13T04:29:18.389Z,1.98
2022-09-13T04:31:45.565Z,1.60
2022-09-13T04:34:12.323Z,1.60
2022-09-13T04:36:39.541Z,1.52
2022-09-13T04:39:06.477Z,1.58
2022-09-13T04:41:35.780Z,1.52
2022-09-13T04:44:02.923Z,1.10
2022-09-13T04:46:29.634Z,1.00
2022-09-13T04:48:55.960Z,1.35
2022-09-13T04:51:22.413Z,1.17
2022-09-13T04:53:54.329Z,1.35
2022-09-13T04:56:21.323Z,1.23
2022-09-13T04:58:47.645Z,0.80
2022-09-13T05:01:14.426Z,0.90
2022-09-13T05:03:40.861Z,0.90
2022-09-13T05:06:08.765Z,1.13
2022-09-13T05:08:35.502Z,0.82
2022-09-13T05:11:01.996Z,1.10
2022-09-13T05:13:28.921Z,0.88
2022-09-13T05:15:58.979Z,1.30
2022-09-13T05:18:29.584Z,1.20
2022-09-13T05:20:56.572Z,1.20
2022-09-13T05:23:23.211Z,1.50
2022-09-13T05:25:56.624Z,1.10
2022-09-13T05:28:23.251Z,1.20
2022-09-13T05:30:56.910Z,1.05
2022-09-13T05:33:23.672Z,1.40
2022-09-13T05:35:50.625Z,1.70
2022-09-13T05:38:16.938Z,1.02
2022-09-13T05:40:43.406Z,1.38
2022-09-13T05:43:09.757Z,1.20
2022-09-13T05:45:36.149Z,1.20
2022-09-13T05:48:02.597Z,1.20
2022-09-13T05:50:56.790Z,1.08
2022-09-13T05:53:15.382Z,1.50
2022-09-13T05:55:42.133Z,1.40
2022-09-13T05:58:08.843Z,1.35
2022-09-13T06:00:35.230Z,1.10
2022-09-13T06:03:01.558Z,1.25
2022-09-13T06:05:31.752Z,1.55
2022-09-13T06:07:58.400Z,1.50
2022-09-13T06:10:25.341Z,1.77
2022-09-13T06:12:51.718Z,1.77
2022-09-13T06:15:18.041Z,1.40
2022-09-13T06:17:44.350Z,1.70
2022-09-13T06:20:10.857Z,1.65
2022-09-13T06:22:37.246Z,1.80
2022-09-13T06:25:03.690Z,1.65
2022-09-13T06:27:31.322Z,2.15
2022-09-13T06:29:57.658Z,2.97
2022-09-13T06:32:24.091Z,1.90
2022-09-13T06:34:50.392Z,1.80
2022-09-13T06:37:16.764Z,2.00
2022-09-13T06:39:43.235Z,2.15
2022-09-13T06:42:09.769Z,1.88
2022-09-13T06:44:37.568Z,1.98
2022-09-13T06:47:03.949Z,2.08
2022-09-13T06:49:31.581Z,1.70
2022-09-13T06:51:58.351Z,1.40
2022-09-13T06:54:24.746Z,1.67
2022-09-13T06:56:51.171Z,1.40
2022-09-13T06:59:17.549Z,1.73
2022-09-13T07:01:43.998Z,1.25
2022-09-13T07:04:11.647Z,1.23
2022-09-13T07:06:39.859Z,0.82
2022-09-13T07:09:07.461Z,1.95
2022-09-13T07:11:35.548Z,1.38
2022-09-13T07:14:02.270Z,1.20
2022-09-13T07:16:30.101Z,1.15
2022-09-13T07:19:05.675Z,1.55
2022-09-13T07:21:32.964Z,0.95
2022-09-13T07:23:59.615Z,1.70
2022-09-13T07:26:27.522Z,1.10
2022-09-13T07:28:55.179Z,1.10
2022-09-13T07:31:26.179Z,1.27
2022-09-13T07:36:18.785Z,1.05
2022-09-13T07:38:51.192Z,1.27
2022-09-13T07:41:18.617Z,0.90
2022-09-13T07:43:45.396Z,1.30
2022-09-13T07:46:13.267Z,0.88
2022-09-13T07:48:41.057Z,1.00
2022-09-13T07:51:17.858Z,1.13
2022-09-13T07:53:45.093Z,1.13
2022-09-13T07:56:12.980Z,1.10
2022-09-13T07:58:40.214Z,1.00
2022-09-13T08:01:27.169Z,0.98
2022-09-13T08:03:57.805Z,0.82
2022-09-13T08:06:25.044Z,1.20
2022-09-13T08:08:51.716Z,0.82
2022-09-13T08:11:19.719Z,0.98
2022-09-13T08:13:46.866Z,1.92
2022-09-13T08:16:13.662Z,1.70
2022-09-13T08:19:06.308Z,0.70
2022-09-13T08:21:36.947Z,0.82
2022-09-13T08:24:04.008Z,1.05
2022-09-13T08:26:31.286Z,0.95
2022-09-13T08:28:58.497Z,1.05
2022-09-13T08:31:25.281Z,0.80
2022-09-13T08:33:51.924Z,1.65
2022-09-13T08:36:18.972Z,0.80
2022-09-13T08:38:46.420Z,1.70
2022-09-13T08:41:21.853Z,1.10
2022-09-13T08:43:55.709Z,0.80
2022-09-13T08:46:39.343Z,0.73
2022-09-13T08:49:16.249Z,0.77
2022-09-13T08:51:47.478Z,0.70
2022-09-13T08:54:16.556Z,0.60
2022-09-13T08:56:51.785Z,1.42
2022-09-13T08:59:18.241Z,1.30
2022-09-13T09:01:50.601Z,1.25
2022-09-13T09:04:32.480Z,1.50
2022-09-13T09:07:09.027Z,1.45
2022-09-13T09:09:39.949Z,1.38
2022-09-13T09:14:38.573Z,0.73
2022-09-13T09:17:07.557Z,1.00
2022-09-13T09:19:48.157Z,1.10
2022-09-13T09:22:19.435Z,0.50
2022-09-13T09:24:47.695Z,0.70
2022-09-13T09:27:18.283Z,0.57
2022-09-13T09:29:46.275Z,0.68
2022-09-13T09:32:45.392Z,0.77
2022-09-13T09:35:31.454Z,1.00
2022-09-13T09:38:18.046Z,1.00
2022-09-13T09:40:44.543Z,0.70
2022-09-13T09:43:40.310Z,0.98
2022-09-13T09:46:08.970Z,0.77
2022-09-13T09:48:44.935Z,1.17
2022-09-13T09:51:12.843Z,0.88
2022-09-13T09:53:43.486Z,0.80
2022-09-13T09:56:26.205Z,1.17
2022-09-13T09:58:56.176Z,0.55
2022-09-13T10:01:25.479Z,1.30
2022-09-13T10:03:58.373Z,1.08
2022-09-13T10:06:28.409Z,1.05
2022-09-13T10:08:56.918Z,1.97
2022-09-13T10:11:26.150Z,1.40
2022-09-13T10:14:01.908Z,1.00
2022-09-13T10:16:30.107Z,0.90
2022-09-13T10:19:17.217Z,0.98
2022-09-13T10:21:43.546Z,0.77
2022-09-13T10:24:16.811Z,1.02
2022-09-13T10:26:43.652Z,0.70
2022-09-13T10:29:13.957Z,1.00
2022-09-13T10:31:42.641Z,1.23
2022-09-13T10:34:29.700Z,1.13
2022-09-13T10:36:58.357Z,0.88
2022-09-13T10:39:25.419Z,1.45
2022-09-13T10:41:54.812Z,1.00
2022-09-13T10:44:27.422Z,1.30
2022-09-13T10:46:54.082Z,1.05
2022-09-13T10:49:40.618Z,1.23
2022-09-13T10:52:24.062Z,1.15
2022-09-13T10:54:50.477Z,0.75
2022-09-13T10:57:31.337Z,0.90
2022-09-13T10:59:58.020Z,1.10
2022-09-13T11:02:24.353Z,0.60
2022-09-13T11:04:50.661Z,0.80
2022-09-13T11:07:25.884Z,1.10
2022-09-13T11:10:14.543Z,0.55
2022-09-13T11:12:49.713Z,0.60
2022-09-13T11:15:19.077Z,0.80
2022-09-13T11:18:00.787Z,0.80
2022-09-13T11:20:27.361Z,0.70
2022-09-13T11:23:19.389Z,0.90
2022-09-13T11:25:45.694Z,0.93
2022-09-13T11:28:18.125Z,0.98
2022-09-13T11:30:59.551Z,1.02
2022-09-13T11:33:46.797Z,0.95
2022-09-13T11:36:31.718Z,0.90
2022-09-13T11:38:58.289Z,0.98
2022-09-13T11:41:33.001Z,0.60
2022-09-13T11:44:08.298Z,0.60
2022-09-13T11:46:41.214Z,0.70
2022-09-13T11:49:07.529Z,0.88
2022-09-13T11:51:36.841Z,0.57
2022-09-13T11:54:03.215Z,0.60
2022-09-13T11:56:34.538Z,0.90
2022-09-13T11:59:14.956Z,0.82
2022-09-13T12:04:22.864Z,1.30
2022-09-13T12:06:54.152Z,0.65
2022-09-13T12:09:26.119Z,1.40
2022-09-13T12:12:12.767Z,0.95
2022-09-13T12:14:39.083Z,0.60
2022-09-13T12:17:09.710Z,0.65
2022-09-13T12:19:45.208Z,0.98
2022-09-13T12:22:13.233Z,0.93
2022-09-13T12:24:39.534Z,0.70
2022-09-13T12:27:24.428Z,0.90
2022-09-13T12:29:52.888Z,0.60
2022-09-13T12:32:19.785Z,0.77
2022-09-13T12:34:46.093Z,0.63
2022-09-13T12:37:16.003Z,0.70
2022-09-13T12:39:54.577Z,1.98
2022-09-13T12:42:26.316Z,0.43
2022-09-13T12:44:55.725Z,0.63
2022-09-13T12:47:36.473Z,0.43
2022-09-13T12:50:36.907Z,0.70
2022-09-13T12:53:13.676Z,0.50
2022-09-13T12:55:47.091Z,0.60
2022-09-13T12:58:24.409Z,0.40
2022-09-13T13:00:57.212Z,0.40
2022-09-13T13:03:27.127Z,0.40
2022-09-13T13:05:56.938Z,0.40
2022-09-13T13:08:29.276Z,0.38
2022-09-13T13:11:07.957Z,0.40
2022-09-13T13:13:41.639Z,0.40
2022-09-13T13:16:48.654Z,0.40
2022-09-13T13:19:29.217Z,0.30
2022-09-13T13:21:55.715Z,0.52
2022-09-13T13:24:22.091Z,0.70
2022-09-13T13:26:55.883Z,0.30
2022-09-13T13:29:32.530Z,0.45
2022-09-13T13:32:04.026Z,0.50
2022-09-13T13:34:42.237Z,0.63
2022-09-13T13:37:08.797Z,0.43
2022-09-13T13:39:43.315Z,0.60
2022-09-13T13:42:28.235Z,0.68
2022-09-13T13:44:54.532Z,0.35
2022-09-13T13:47:20.972Z,0.60
2022-09-13T13:49:52.526Z,0.32
2022-09-13T13:52:22.250Z,0.70
2022-09-13T13:54:55.107Z,0.30
2022-09-13T13:57:40.414Z,0.30
2022-09-13T14:00:20.919Z,0.28
2022-09-13T14:02:50.268Z,0.50
2022-09-13T14:05:35.514Z,0.30
2022-09-13T14:08:23.726Z,0.40
2022-09-13T14:11:03.408Z,0.35
2022-09-13T14:13:32.526Z,0.40
2022-09-13T14:16:08.229Z,0.43
2022-09-13T14:18:52.992Z,0.40
2022-09-13T14:21:26.681Z,0.40
2022-09-13T14:24:08.243Z,0.50
2022-09-13T14:26:34.739Z,0.70
2022-09-13T14:29:01.113Z,1.48
2022-09-13T14:31:27.555Z,0.70
2022-09-13T14:33:54.119Z,0.40
2022-09-13T14:36:21.214Z,0.40
2022-09-13T14:38:55.223Z,0.75
2022-09-13T14:41:28.953Z,0.55
2022-09-13T14:44:18.843Z,0.38
2022-09-13T14:46:52.485Z,0.52
2022-09-13T14:49:24.998Z,0.45
2022-09-13T14:51:55.587Z,0.50
2022-09-13T14:54:30.346Z,0.40
2022-09-13T14:56:58.417Z,0.28
2022-09-13T14:59:45.170Z,0.30
2022-09-13T15:02:14.277Z,0.50
2022-09-13T15:04:43.352Z,0.40
2022-09-13T15:07:21.774Z,0.32
2022-09-13T15:09:48.833Z,0.50
2022-09-13T15:12:22.570Z,0.50
2022-09-13T15:14:48.908Z,0.70
2022-09-13T15:17:15.322Z,0.70
2022-09-13T15:19:48.888Z,0.40
2022-09-13T15:22:18.203Z,0.95
2022-09-13T15:24:46.486Z,0.43
2022-09-13T15:27:32.200Z,0.60
2022-09-13T15:30:03.691Z,0.50
2022-09-13T15:32:43.199Z,0.60
2022-09-13T15:35:17.618Z,0.77
2022-09-13T15:37:43.954Z,0.85
2022-09-13T15:40:15.283Z,0.80
2022-09-13T15:42:44.955Z,0.90
2022-09-13T15:45:11.294Z,0.80
2022-09-13T15:47:37.829Z,0.65
2022-09-13T15:50:04.427Z,0.70
2022-09-13T15:52:30.989Z,0.90
2022-09-13T15:54:57.397Z,0.90
2022-09-13T15:57:29.203Z,0.82
2022-09-13T16:00:02.737Z,0.80
2022-09-13T16:02:33.169Z,0.70
2022-09-13T16:04:59.780Z,1.10
2022-09-13T16:07:26.463Z,0.73
2022-09-13T16:09:53.248Z,1.35
2022-09-13T16:12:22.090Z,0.80
2022-09-13T16:14:48.406Z,0.70
2022-09-13T16:17:22.818Z,0.93
2022-09-13T16:19:49.273Z,1.23
2022-09-13T16:22:15.936Z,1.20
2022-09-13T16:24:42.427Z,0.93
2022-09-13T16:27:16.442Z,0.82
2022-09-13T16:29:42.833Z,0.82
2022-09-13T16:32:09.145Z,0.93
2022-09-13T16:34:35.491Z,1.00
2022-09-13T16:37:01.866Z,1.35
2022-09-13T16:39:28.291Z,1.10
2022-09-13T16:41:54.796Z,0.98
2022-09-13T16:44:21.232Z,1.90
2022-09-13T16:46:47.783Z,1.63
2022-09-13T16:49:14.161Z,1.40
2022-09-13T16:51:40.476Z,1.40
2022-09-13T16:54:06.905Z,2.22
2022-09-13T16:56:33.270Z,1.50
2022-09-13T16:58:59.622Z,1.70
2022-09-13T17:01:28.131Z,1.83
2022-09-13T17:03:55.204Z,1.60
2022-09-13T17:06:22.399Z,1.80
2022-09-13T17:08:50.145Z,1.65
2022-09-13T17:11:17.498Z,2.08
2022-09-13T17:13:43.851Z,2.08
2022-09-13T17:16:39.685Z,2.08
2022-09-13T17:19:07.554Z,2.10
2022-09-13T17:21:37.047Z,2.63
2022-09-13T17:24:03.775Z,3.55
2022-09-13T17:26:30.098Z,1.55
2022-09-13T17:28:56.501Z,2.10
2022-09-13T17:31:23.095Z,2.65
2022-09-13T17:33:50.060Z,2.22
2022-09-13T17:36:17.228Z,2.15
2022-09-13T17:38:46.634Z,2.33
2022-09-13T17:41:16.923Z,2.20
2022-09-13T17:43:43.662Z,2.22
2022-09-13T17:46:11.864Z,2.50
2022-09-13T17:48:38.602Z,2.60
2022-09-13T17:51:06.354Z,2.30
2022-09-13T17:53:37.244Z,3.45
2022-09-13T17:56:03.562Z,2.45
2022-09-13T17:58:29.944Z,2.08
2022-09-13T18:01:06.509Z,2.40
2022-09-13T18:03:33.347Z,2.38
2022-09-13T18:06:01.561Z,2.13
2022-09-13T18:08:29.014Z,2.78
2022-09-13T18:11:12.366Z,2.28
2022-09-13T18:13:40.415Z,2.55
2022-09-13T18:16:06.988Z,2.40
2022-09-13T18:18:34.620Z,2.55
2022-09-13T18:21:01.070Z,2.53
2022-09-13T18:23:28.684Z,2.38
2022-09-13T18:26:02.624Z,2.40
2022-09-13T18:28:31.034Z,2.20
2022-09-13T18:30:58.529Z,2.90
2022-09-13T18:33:25.379Z,2.65
2022-09-13T18:36:02.006Z,2.78
2022-09-13T18:38:31.284Z,2.83
2022-09-13T18:41:02.539Z,2.20
2022-09-13T18:43:29.196Z,2.20
2022-09-13T18:45:56.319Z,2.20
2022-09-13T18:48:22.914Z,2.78
2022-09-13T18:50:49.546Z,2.83
2022-09-13T18:53:15.945Z,2.75
2022-09-13T18:55:42.310Z,2.85
2022-09-13T18:58:13.336Z,3.30
2022-09-13T19:00:40.031Z,2.05
2022-09-13T19:03:12.254Z,3.22
2022-09-13T19:05:41.907Z,2.42
2022-09-13T19:08:11.364Z,2.95
2022-09-13T19:10:38.130Z,2.70
2022-09-13T19:13:04.807Z,3.00
2022-09-13T19:15:31.732Z,2.83
2022-09-13T19:17:58.106Z,2.70
2022-09-13T19:20:24.488Z,3.28
2022-09-13T19:22:52.300Z,2.55
2022-09-13T19:25:18.717Z,2.88
2022-09-13T19:27:45.078Z,2.42
2022-09-13T19:30:12.778Z,3.15
2022-09-13T19:32:39.173Z,3.45
2022-09-13T19:35:05.767Z,2.67
2022-09-13T19:37:33.436Z,2.47
2022-09-13T19:39:59.788Z,2.78
2022-09-13T19:42:26.180Z,2.95
2022-09-13T19:44:52.789Z,2.97
2022-09-13T19:50:07.119Z,4.40
2022-09-13T19:52:33.478Z,3.45
2022-09-13T19:54:59.812Z,2.72
2022-09-13T19:57:26.312Z,2.50
2022-09-13T19:59:52.756Z,3.47
2022-09-13T20:02:19.121Z,3.03
2022-09-13T20:04:46.454Z,3.28
2022-09-13T20:07:14.293Z,2.83
2022-09-13T20:09:42.289Z,2.92
2022-09-13T20:12:10.031Z,2.33
2022-09-13T20:14:38.186Z,3.33
2022-09-13T20:17:06.284Z,2.30
2022-09-13T20:19:43.512Z,3.25
2022-09-13T20:22:11.502Z,2.42
2022-09-13T20:24:37.872Z,2.97
2022-09-13T20:27:04.367Z,3.20
2022-09-13T20:29:31.593Z,2.88
2022-09-13T20:31:59.456Z,2.80
2022-09-13T20:34:27.308Z,2.88
2022-09-13T20:36:53.793Z,3.00
2022-09-13T20:39:20.115Z,2.70
2022-09-13T20:41:49.292Z,2.60
2022-09-13T20:44:15.792Z,2.75
2022-09-13T20:46:43.280Z,3.28
2022-09-13T20:49:09.833Z,3.92
2022-09-13T20:51:36.334Z,2.70
2022-09-13T20:54:02.780Z,2.70
2022-09-13T20:56:30.370Z,3.08
2022-09-13T20:59:00.089Z,2.67
2022-09-13T21:01:27.613Z,3.72
2022-09-13T21:03:54.799Z,3.10
2022-09-13T21:06:21.994Z,3.03
2022-09-13T21:08:50.320Z,2.53
2022-09-13T21:11:30.030Z,1.98
2022-09-13T21:13:59.321Z,1.80
2022-09-13T21:16:26.673Z,2.10
2022-09-13T21:18:53.415Z,2.17
2022-09-13T21:21:21.046Z,2.13
2022-09-13T21:23:47.941Z,1.85
2022-09-13T21:26:15.480Z,1.90
2022-09-13T21:28:45.716Z,1.98
2022-09-13T21:31:23.688Z,2.33
2022-09-13T21:33:54.219Z,2.35
2022-09-13T21:36:24.069Z,2.58
2022-09-13T21:38:51.873Z,2.20
2022-09-13T21:41:18.432Z,2.40
2022-09-13T21:43:45.125Z,1.90
2022-09-13T21:46:17.011Z,1.90
2022-09-13T21:48:44.548Z,2.35
2022-09-13T21:51:31.180Z,3.05
2022-09-13T21:53:59.310Z,2.42
2022-09-13T21:56:27.241Z,1.67
2022-09-13T21:59:00.974Z,1.95
2022-09-13T22:01:31.232Z,1.58
2022-09-13T22:03:58.052Z,2.63
2022-09-13T22:06:24.873Z,1.98
2022-09-13T22:08:52.824Z,2.47
2022-09-13T22:11:26.874Z,2.05
2022-09-13T22:13:53.757Z,2.75
2022-09-13T22:16:24.115Z,1.75
2022-09-13T22:18:51.726Z,2.15
2022-09-13T22:21:19.783Z,2.50
2022-09-13T22:23:46.390Z,2.08
2022-09-13T22:26:21.097Z,1.50
2022-09-13T22:28:48.026Z,1.63
2022-09-13T22:31:18.859Z,1.48
2022-09-13T22:33:45.284Z,1.52
2022-09-13T22:36:12.878Z,2.03
2022-09-13T22:38:39.835Z,2.00
2022-09-13T22:41:07.655Z,2.03
2022-09-13T22:43:36.338Z,1.60
2022-09-13T22:46:04.323Z,1.55
2022-09-13T22:48:31.197Z,1.42
2022-09-13T22:50:57.593Z,1.65
2022-09-13T22:53:24.402Z,1.60
2022-09-13T22:55:50.988Z,1.75
2022-09-13T22:58:17.350Z,2.25
2022-09-13T23:00:46.780Z,1.58
2022-09-13T23:03:13.792Z,1.30
2022-09-13T23:05:40.319Z,1.52
2022-09-13T23:08:06.651Z,1.40
2022-09-13T23:10:32.974Z,1.98
2022-09-13T23:12:59.350Z,1.30
2022-09-13T23:15:25.666Z,1.67
2022-09-13T23:17:52.064Z,1.35
2022-09-13T23:20:20.172Z,1.67
2022-09-13T23:22:46.823Z,1.10
2022-09-13T23:25:13.214Z,2.95
2022-09-13T23:27:39.669Z,1.25
2022-09-13T23:30:06.514Z,1.50
2022-09-13T23:32:33.060Z,1.33
2022-09-13T23:34:59.366Z,0.73
2022-09-13T23:37:25.685Z,1.10
2022-09-13T23:39:52.370Z,1.23
2022-09-13T23:42:18.928Z,1.10
2022-09-13T23:44:45.254Z,1.40
2022-09-13T23:47:11.650Z,1.05
2022-09-13T23:49:38.100Z,0.95
2022-09-13T23:52:04.508Z,0.93
2022-09-13T23:54:30.860Z,0.98
2022-09-13T23:56:57.190Z,1.05
2022-09-13T23:59:24.255Z,0.80
